Time;durP1;ratioP1;P1;durP2;ratioP2;P2;SDS_P1;SDS_P2;PMS_P1;PMS_P2;Temp;Humidity;BMP_temperature;BMP_pressure;BME280_temperature;BME280_humidity;BME280_pressure;Samples;Min_cycle;Max_cycle;Signal;HPM_P1;HPM_P2
2023/11/27 00:01:27;;;;;;;;;;;4.80;99.90;;;;;;6734642;88;20055;-77
2023/11/27 00:11:27;;;;;;;;;;;4.70;99.90;;;;;;6727222;88;20059;-77
2023/11/27 00:21:28;;;;;;;;;;;4.70;99.90;;;;;;6719915;88;20694;-77
2023/11/27 00:31:28;;;;;;;;;;;4.80;99.90;;;;;;6723356;88;20513;-77
2023/11/27 00:41:28;;;;;;;;;;;4.80;99.90;;;;;;6725302;88;20174;-78
2023/11/27 00:51:29;;;;;;;;;;;4.60;99.90;;;;;;6726141;88;20058;-78
2023/11/27 01:01:29;;;;;;;;;;;4.70;99.90;;;;;;6728641;88;20180;-78
2023/11/27 01:11:30;;;;;;;;;;;4.60;99.90;;;;;;6725608;88;20092;-78
2023/11/27 01:21:31;;;;;;;;;;;4.40;99.90;;;;;;6730596;88;20073;-78
2023/11/27 01:31:31;;;;;;;;;;;4.50;99.90;;;;;;6729472;88;20058;-79
2023/11/27 01:41:32;;;;;;;;;;;4.50;99.90;;;;;;6726462;88;20191;-77
2023/11/27 01:51:32;;;;;;;;;;;4.60;99.90;;;;;;6728194;88;20058;-77
2023/11/27 02:01:33;;;;;;;;;;;4.50;99.90;;;;;;6727092;88;20050;-77
2023/11/27 02:11:42;;;;;;;;;;;4.50;99.90;;;;;;6724419;88;20066;-77
2023/11/27 02:21:43;;;;;;;;;;;4.50;99.90;;;;;;6726291;88;20088;-77
2023/11/27 02:31:44;;;;;;;;;;;4.40;99.90;;;;;;6728701;88;20145;-77
2023/11/27 02:41:44;;;;;;;;;;;4.40;99.90;;;;;;6729054;88;20096;-77
2023/11/27 02:51:45;;;;;;;;;;;4.40;99.90;;;;;;6724526;88;20563;-77
2023/11/27 03:01:46;;;;;;;;;;;4.30;99.90;;;;;;6725648;88;20086;-77
2023/11/27 03:11:47;;;;;;;;;;;4.30;99.90;;;;;;6721137;88;20169;-77
2023/11/27 03:21:48;;;;;;;;;;;4.20;99.90;;;;;;6730927;88;20058;-77
2023/11/27 03:41:52;;;;;;;;;;;4.20;99.90;;;;;;6751193;88;20090;-79
2023/11/27 03:51:53;;;;;;;;;;;4.20;99.90;;;;;;6750351;88;20082;-83
2023/11/27 04:01:53;;;;;;;;;;;4.20;99.90;;;;;;6750444;88;20138;-82
2023/11/27 04:11:54;;;;;;;;;;;4.30;99.90;;;;;;6750510;88;20785;-83
2023/11/27 04:21:54;;;;;;;;;;;4.20;99.90;;;;;;6750114;88;20800;-84
2023/11/27 04:31:55;;;;;;;;;;;4.30;99.90;;;;;;6749972;88;20030;-81
2023/11/27 04:41:55;;;;;;;;;;;4.20;99.90;;;;;;6749669;88;20101;-81
2023/11/27 04:51:56;;;;;;;;;;;4.30;99.90;;;;;;6751805;88;20045;-83
2023/11/27 05:01:56;;;;;;;;;;;4.30;99.90;;;;;;6752003;88;20137;-83
2023/11/27 05:11:56;;;;;;;;;;;4.30;99.90;;;;;;6752037;88;20608;-81
2023/11/27 05:21:57;;;;;;;;;;;4.40;99.90;;;;;;6732665;88;20027;-81
2023/11/27 05:31:57;;;;;;;;;;;4.40;99.90;;;;;;6740322;88;20645;-84
2023/11/27 05:41:58;;;;;;;;;;;4.40;99.90;;;;;;6732715;88;20024;-79
2023/11/27 05:51:58;;;;;;;;;;;4.30;99.90;;;;;;6750412;88;20859;-79
2023/11/27 06:01:59;;;;;;;;;;;4.30;99.90;;;;;;6751127;88;20022;-81
2023/11/27 06:11:59;;;;;;;;;;;4.10;99.90;;;;;;6747842;88;20140;-79
2023/11/27 06:22:00;;;;;;;;;;;3.70;99.90;;;;;;6741662;88;20061;-78
2023/11/27 06:32:00;;;;;;;;;;;3.50;99.90;;;;;;6717310;88;20035;-80
2023/11/27 06:42:00;;;;;;;;;;;3.30;99.90;;;;;;6727566;88;20113;-83
2023/11/27 07:12:45;;;;;;;;;;;2.80;99.90;;;;;;6732498;88;20100;-82
2023/11/27 07:22:46;;;;;;;;;;;2.60;99.90;;;;;;6715359;88;20192;-82
2023/11/27 07:32:46;;;;;;;;;;;2.50;99.90;;;;;;6723151;88;20082;-79
2023/11/27 07:42:47;;;;;;;;;;;2.50;99.90;;;;;;6717758;88;20187;-78
2023/11/27 07:52:48;;;;;;;;;;;2.40;99.90;;;;;;6718445;88;20055;-79
2023/11/27 08:02:51;;;;;;;;;;;2.40;99.90;;;;;;6742671;88;20070;-79
2023/11/27 08:12:52;;;;;;;;;;;2.40;99.90;;;;;;6746748;88;20160;-80
2023/11/27 08:22:52;;;;;;;;;;;2.40;99.90;;;;;;6747736;88;20097;-79
2023/11/27 08:32:52;;;;;;;;;;;2.50;99.90;;;;;;6750213;88;20484;-81
2023/11/27 08:42:53;;;;;;;;;;;2.60;99.90;;;;;;6750347;88;20138;-81
2023/11/27 08:52:59;;;;;;;;;;;2.70;99.90;;;;;;6744567;88;20573;-79
2023/11/27 09:03:00;;;;;;;;;;;2.70;99.90;;;;;;6702380;88;20107;-81
2023/11/27 09:13:01;;;;;;;;;;;2.70;99.90;;;;;;6710681;88;20084;-80
2023/11/27 09:23:01;;;;;;;;;;;2.80;99.90;;;;;;6716318;88;20083;-80
2023/11/27 09:43:05;;;;;;;;;;;2.90;99.90;;;;;;6729062;88;20113;-83
2023/11/27 09:53:06;;;;;;;;;;;3.00;99.90;;;;;;6729998;88;20075;-84
2023/11/27 10:03:29;;;;;;;;;;;3.10;99.90;;;;;;6791345;77;20062;-84
2023/11/27 10:13:34;;;;;;;;;;;2.80;99.90;;;;;;6752805;88;20074;-83
2023/11/27 10:23:35;;;;;;;;;;;2.80;99.90;;;;;;6679646;89;20816;-86
2023/11/27 10:43:41;;;;;;;;;;;2.90;99.90;;;;;;6751840;88;20082;-83
2023/11/27 10:53:46;;;;;;;;;;;3.00;99.90;;;;;;6748954;88;20058;-82
2023/11/27 11:03:48;;;;;;;;;;;3.10;99.90;;;;;;6747063;88;20071;-83
2023/11/27 11:13:48;;;;;;;;;;;3.10;99.90;;;;;;6749752;88;20130;-83
2023/11/27 11:23:54;;;;;;;;;;;3.10;99.90;;;;;;6750455;88;20030;-85
2023/11/27 11:33:55;;;;;;;;;;;3.10;99.90;;;;;;6750039;88;20022;-84
2023/11/27 11:43:57;;;;;;;;;;;3.10;99.90;;;;;;6740344;88;20043;-85
2023/11/27 11:53:59;;;;;;;;;;;3.20;99.90;;;;;;6794878;77;20435;31
2023/11/27 12:04:05;;;;;;;;;;;3.20;99.90;;;;;;6724090;88;20040;-83
2023/11/27 12:14:14;;;;;;;;;;;3.20;99.90;;;;;;6731382;88;20157;-84
2023/11/27 12:24:14;;;;;;;;;;;3.10;99.90;;;;;;6732268;88;20078;-84
2023/11/27 12:34:17;;;;;;;;;;;3.20;99.90;;;;;;6732224;88;20078;-84
2023/11/27 12:44:19;;;;;;;;;;;3.20;99.90;;;;;;6733375;88;20150;-83
2023/11/27 12:54:21;;;;;;;;;;;3.20;99.90;;;;;;6731630;88;20557;-84
2023/11/27 13:04:22;;;;;;;;;;;3.10;99.90;;;;;;6728381;88;20035;-84
2023/11/27 13:14:23;;;;;;;;;;;3.20;99.90;;;;;;6735891;88;20137;-82
2023/11/27 13:24:29;;;;;;;;;;;3.10;99.90;;;;;;6682703;89;20030;-84
2023/11/27 13:34:35;;;;;;;;;;;3.00;99.90;;;;;;6662175;89;20034;-84
2023/11/27 13:44:36;;;;;;;;;;;3.10;99.90;;;;;;6709176;88;20045;-84
2023/11/27 13:54:36;;;;;;;;;;;3.10;99.90;;;;;;6718214;88;20051;-84
2023/11/27 14:04:38;;;;;;;;;;;3.10;99.90;;;;;;6717841;88;20112;-83
2023/11/27 14:14:38;;;;;;;;;;;3.10;99.90;;;;;;6717262;88;20085;-81
2023/11/27 14:24:49;;;;;;;;;;;3.10;99.90;;;;;;6706607;88;20096;-81
2023/11/27 14:34:52;;;;;;;;;;;3.10;99.90;;;;;;6702747;88;20114;-83
2023/11/27 14:44:53;;;;;;;;;;;3.10;99.90;;;;;;6713917;88;20623;-81
2023/11/27 14:54:53;;;;;;;;;;;3.10;99.90;;;;;;6722885;88;20143;-81
2023/11/27 15:04:54;;;;;;;;;;;3.10;99.90;;;;;;6724624;88;20494;-82
2023/11/27 15:14:54;;;;;;;;;;;3.10;99.90;;;;;;6725014;88;20071;-82
2023/11/27 15:24:56;;;;;;;;;;;3.10;99.90;;;;;;6723624;88;20062;-81
2023/11/27 15:34:57;;;;;;;;;;;3.10;99.90;;;;;;6722606;88;20052;-81
2023/11/27 15:44:57;;;;;;;;;;;3.10;99.90;;;;;;6724814;88;20068;-81
2023/11/27 15:54:58;;;;;;;;;;;3.10;99.90;;;;;;6723524;88;20065;-81
2023/11/27 16:05:00;;;;;;;;;;;3.00;99.90;;;;;;6722075;88;20602;-81
2023/11/27 16:15:00;;;;;;;;;;;3.10;99.90;;;;;;6721949;88;20210;-82
2023/11/27 16:25:01;;;;;;;;;;;3.10;99.90;;;;;;6722833;88;20116;-82
2023/11/27 16:35:14;;;;;;;;;;;3.10;99.90;;;;;;6721281;88;20051;-80
2023/11/27 16:45:17;;;;;;;;;;;3.10;99.90;;;;;;6707096;88;20111;-80
2023/11/27 16:55:18;;;;;;;;;;;3.10;99.90;;;;;;6708824;88;20122;-82
2023/11/27 17:05:19;;;;;;;;;;;3.10;99.90;;;;;;6702974;88;20108;-84
2023/11/27 17:15:20;;;;;;;;;;;3.10;99.90;;;;;;6708072;88;20105;-82
2023/11/27 17:25:21;;;;;;;;;;;3.20;99.90;;;;;;6708781;88;20632;-82
2023/11/27 17:35:21;;;;;;;;;;;3.20;99.90;;;;;;6708507;88;20043;-83
2023/11/27 17:45:24;;;;;;;;;;;3.20;99.90;;;;;;6708057;88;20684;-82
2023/11/27 17:55:29;;;;;;;;;;;3.20;99.90;;;;;;6708684;88;20107;-80
2023/11/27 18:05:30;;;;;;;;;;;3.20;99.90;;;;;;6709160;88;20206;-81
2023/11/27 18:15:31;;;;;;;;;;;3.20;99.90;;;;;;6710377;88;20725;-82
2023/11/27 18:25:32;;;;;;;;;;;3.10;99.90;;;;;;6742458;88;20063;-81
2023/11/27 18:35:34;;;;;;;;;;;3.10;99.90;;;;;;6745272;88;20038;-82
2023/11/27 18:45:34;;;;;;;;;;;3.10;99.90;;;;;;6742673;88;20568;-81
2023/11/27 18:55:34;;;;;;;;;;;3.20;99.90;;;;;;6744584;88;20054;-83
2023/11/27 19:05:38;;;;;;;;;;;3.20;99.90;;;;;;6745612;88;20051;-80
2023/11/27 19:15:39;;;;;;;;;;;3.20;99.90;;;;;;6744011;88;20122;-82
2023/11/27 19:25:40;;;;;;;;;;;3.20;99.90;;;;;;6746908;88;20074;-82
2023/11/27 19:35:40;;;;;;;;;;;3.20;99.90;;;;;;6748612;88;20095;-80
2023/11/27 19:45:41;;;;;;;;;;;3.30;99.90;;;;;;6745318;88;20194;-80
2023/11/27 19:55:41;;;;;;;;;;;3.20;99.90;;;;;;6731425;88;20043;-80
2023/11/27 20:05:42;;;;;;;;;;;3.10;99.90;;;;;;6727839;88;20050;-82
2023/11/27 20:15:42;;;;;;;;;;;3.20;99.90;;;;;;6746838;88;20052;-82
2023/11/27 20:25:42;;;;;;;;;;;3.10;99.90;;;;;;6748487;88;20022;-83
2023/11/27 20:35:43;;;;;;;;;;;3.20;99.90;;;;;;6750080;88;20042;-83
2023/11/27 20:45:43;;;;;;;;;;;3.20;99.90;;;;;;6748248;88;20049;-84
2023/11/27 20:55:44;;;;;;;;;;;3.20;99.90;;;;;;6748681;88;20313;-83
2023/11/27 21:05:44;;;;;;;;;;;3.30;99.90;;;;;;6749307;88;20139;-82
2023/11/27 21:15:46;;;;;;;;;;;3.20;99.90;;;;;;6748877;88;20072;-82
2023/11/27 21:25:47;;;;;;;;;;;3.20;99.90;;;;;;6748457;88;20710;-82
2023/11/27 21:35:47;;;;;;;;;;;3.30;99.90;;;;;;6751791;88;20147;-83
2023/11/27 21:45:47;;;;;;;;;;;3.40;99.90;;;;;;6751759;88;20041;-83
2023/11/27 22:47:42;;;;;;;;;;;3.70;99.90;;;;;;7017875;77;20041;-87
2023/11/27 23:39:12;;;;;;;;;;;3.60;99.90;;;;;;6721623;88;20088;-86
